createdAt,value
2023-04-14T00:01:31.586Z,8.50
2023-04-14T00:03:58.954Z,8.60
2023-04-14T00:06:27.770Z,8.50
2023-04-14T00:08:54.746Z,8.40
2023-04-14T00:11:22.577Z,8.50
2023-04-14T00:13:49.508Z,8.50
2023-04-14T00:16:16.704Z,8.40
2023-04-14T00:18:44.094Z,8.40
2023-04-14T00:21:16.984Z,8.20
2023-04-14T00:23:44.198Z,8.30
2023-04-14T00:26:13.719Z,8.30
2023-04-14T00:28:43.760Z,8.20
2023-04-14T00:31:19.660Z,8.30
2023-04-14T00:33:48.229Z,8.30
2023-04-14T00:36:15.378Z,8.20
2023-04-14T00:38:42.334Z,8.10
2023-04-14T00:41:09.262Z,8.00
2023-04-14T00:43:36.198Z,7.90
2023-04-14T00:46:07.995Z,7.80
2023-04-14T00:48:35.364Z,8.00
2023-04-14T00:51:05.759Z,7.90
2023-04-14T00:53:33.194Z,7.90
2023-04-14T00:56:01.143Z,8.00
2023-04-14T00:58:28.807Z,7.90
2023-04-14T01:00:57.492Z,7.90
2023-04-14T01:03:25.023Z,8.00
2023-04-14T01:05:56.869Z,8.00
2023-04-14T01:08:24.956Z,8.00
2023-04-14T01:11:16.359Z,7.80
2023-04-14T01:14:02.474Z,7.80
2023-04-14T01:16:33.028Z,7.80
2023-04-14T01:19:25.077Z,7.70
2023-04-14T01:21:57.689Z,7.70
2023-04-14T01:24:41.343Z,7.60
2023-04-14T01:30:42.043Z,7.60
2023-04-14T01:33:33.887Z,7.60
2023-04-14T01:36:19.986Z,7.50
2023-04-14T01:38:49.023Z,7.40
2023-04-14T01:41:21.654Z,7.30
2023-04-14T01:43:54.014Z,7.20
2023-04-14T01:46:21.920Z,7.30
2023-04-14T01:48:52.711Z,7.20
2023-04-14T01:51:22.892Z,7.10
2023-04-14T01:53:52.508Z,6.90
2023-04-14T01:56:21.879Z,7.00
2023-04-14T01:58:50.159Z,6.80
2023-04-14T02:01:21.348Z,6.80
2023-04-14T02:03:49.994Z,6.80
2023-04-14T02:06:24.536Z,6.80
2023-04-14T02:08:52.379Z,6.70
2023-04-14T02:11:20.766Z,6.60
2023-04-14T02:13:49.753Z,6.70
2023-04-14T02:16:20.026Z,6.70
2023-04-14T02:18:49.526Z,6.60
2023-04-14T02:21:22.876Z,6.60
2023-04-14T02:23:51.436Z,6.60
2023-04-14T02:26:26.431Z,6.40
2023-04-14T02:29:04.872Z,6.40
2023-04-14T02:31:39.296Z,6.50
2023-04-14T02:34:13.901Z,6.40
2023-04-14T02:36:53.758Z,6.40
2023-04-14T02:39:31.010Z,6.40
2023-04-14T02:42:12.726Z,6.40
2023-04-14T02:44:49.268Z,6.30
2023-04-14T02:47:33.056Z,6.20
2023-04-14T02:50:03.108Z,6.20
2023-04-14T02:52:32.822Z,6.10
2023-04-14T02:55:01.368Z,6.10
2023-04-14T02:57:29.985Z,6.00
2023-04-14T02:59:58.997Z,5.90
2023-04-14T03:02:27.844Z,5.90
2023-04-14T03:05:05.500Z,5.80
2023-04-14T03:07:44.060Z,5.90
2023-04-14T03:10:14.384Z,5.80
2023-04-14T03:12:42.208Z,5.90
2023-04-14T03:15:10.686Z,5.60
2023-04-14T03:17:38.913Z,5.40
2023-04-14T03:20:07.607Z,5.40
2023-04-14T03:22:40.791Z,5.50
2023-04-14T03:25:12.470Z,5.40
2023-04-14T03:27:42.318Z,5.30
2023-04-14T03:30:11.789Z,5.20
2023-04-14T03:32:42.417Z,5.20
2023-04-14T03:35:15.042Z,5.10
2023-04-14T03:37:44.835Z,5.10
2023-04-14T03:40:14.523Z,5.20
2023-04-14T03:42:46.256Z,5.20
2023-04-14T03:45:18.188Z,5.10
2023-04-14T03:47:45.652Z,4.90
2023-04-14T03:50:15.580Z,4.90
2023-04-14T03:52:45.334Z,4.90
2023-04-14T03:55:13.146Z,4.90
2023-04-14T03:57:43.985Z,4.70
2023-04-14T04:00:15.355Z,4.80
2023-04-14T04:02:45.871Z,4.80
2023-04-14T04:05:13.473Z,4.80
2023-04-14T04:07:41.850Z,4.80
2023-04-14T04:10:09.698Z,4.90
2023-04-14T04:12:39.005Z,5.00
2023-04-14T04:15:08.628Z,5.00
2023-04-14T04:17:38.553Z,5.00
2023-04-14T04:20:12.853Z,5.10
2023-04-14T04:22:45.381Z,5.10
2023-04-14T04:25:13.663Z,5.10
2023-04-14T04:27:47.032Z,5.20
2023-04-14T04:30:18.618Z,5.00
2023-04-14T04:32:45.642Z,4.80
2023-04-14T04:35:13.150Z,5.00
2023-04-14T04:37:43.726Z,5.10
2023-04-14T04:40:13.517Z,5.00
2023-04-14T04:42:43.661Z,5.00
2023-04-14T04:45:19.387Z,5.00
2023-04-14T04:47:46.641Z,4.90
2023-04-14T04:50:13.873Z,4.90
2023-04-14T04:52:40.778Z,5.00
2023-04-14T04:55:07.919Z,5.00
2023-04-14T04:57:34.888Z,5.10
2023-04-14T05:00:01.798Z,5.10
2023-04-14T05:02:28.830Z,5.00
2023-04-14T05:04:57.428Z,4.80
2023-04-14T05:07:24.366Z,4.80
2023-04-14T05:09:51.451Z,4.70
2023-04-14T05:12:18.387Z,4.70
2023-04-14T05:14:45.369Z,4.60
2023-04-14T05:17:12.308Z,4.70
2023-04-14T05:19:39.192Z,4.80
2023-04-14T05:22:06.261Z,4.70
2023-04-14T05:24:33.185Z,4.70
2023-04-14T05:27:13.729Z,4.60
2023-04-14T05:29:42.066Z,4.70
2023-04-14T05:32:09.415Z,4.80
2023-04-14T05:34:36.378Z,4.80
2023-04-14T05:37:03.305Z,4.70
2023-04-14T05:39:30.291Z,4.70
2023-04-14T05:41:57.192Z,4.70
2023-04-14T05:44:24.534Z,4.60
2023-04-14T05:46:52.601Z,4.60
2023-04-14T05:49:19.663Z,4.60
2023-04-14T05:51:46.554Z,4.60
2023-04-14T05:54:15.587Z,4.60
2023-04-14T05:56:42.506Z,4.70
2023-04-14T05:59:09.451Z,4.90
2023-04-14T06:01:36.415Z,4.90
2023-04-14T06:04:04.241Z,4.80
2023-04-14T06:06:32.618Z,4.80
2023-04-14T06:08:59.955Z,4.80
2023-04-14T06:11:28.380Z,4.80
2023-04-14T06:13:55.703Z,4.80
2023-04-14T06:16:22.664Z,4.90
2023-04-14T06:18:49.667Z,4.70
2023-04-14T06:21:16.568Z,4.80
2023-04-14T06:23:43.457Z,4.80
2023-04-14T06:26:10.545Z,4.80
2023-04-14T06:28:37.571Z,4.90
2023-04-14T06:31:04.526Z,4.90
2023-04-14T06:33:31.850Z,4.90
2023-04-14T06:35:58.854Z,4.80
2023-04-14T06:38:27.085Z,4.70
2023-04-14T06:40:53.927Z,4.90
2023-04-14T06:43:21.253Z,5.00
2023-04-14T06:45:50.879Z,4.90
2023-04-14T06:48:17.952Z,5.00
2023-04-14T06:50:51.861Z,5.10
2023-04-14T06:53:18.936Z,5.10
2023-04-14T06:55:45.922Z,5.10
2023-04-14T06:58:13.150Z,5.10
2023-04-14T07:00:40.051Z,5.10
2023-04-14T07:03:07.312Z,5.10
2023-04-14T07:05:34.317Z,5.10
2023-04-14T07:08:01.524Z,5.00
2023-04-14T07:10:29.540Z,5.10
2023-04-14T07:12:56.432Z,5.10
2023-04-14T07:15:23.380Z,5.10
2023-04-14T07:17:50.860Z,5.20
2023-04-14T07:20:18.003Z,5.10
2023-04-14T07:22:45.657Z,5.30
2023-04-14T07:25:13.689Z,5.30
2023-04-14T07:27:47.278Z,5.40
2023-04-14T07:30:23.363Z,5.40
2023-04-14T07:32:50.501Z,5.40
2023-04-14T07:35:17.427Z,5.50
2023-04-14T07:37:44.482Z,5.40
2023-04-14T07:40:12.293Z,5.50
2023-04-14T07:42:39.170Z,5.50
2023-04-14T07:45:10.008Z,5.40
2023-04-14T07:47:37.348Z,5.40
2023-04-14T07:50:04.698Z,5.40
2023-04-14T07:52:31.821Z,5.50
2023-04-14T07:54:58.698Z,5.40
2023-04-14T07:57:25.826Z,5.50
2023-04-14T07:59:52.703Z,5.40
2023-04-14T08:02:19.847Z,5.60
2023-04-14T08:04:46.801Z,5.50
2023-04-14T08:07:13.784Z,5.40
2023-04-14T08:09:40.712Z,5.40
2023-04-14T08:12:07.620Z,5.50
2023-04-14T08:14:34.818Z,5.50
2023-04-14T08:17:01.785Z,5.60
2023-04-14T08:19:28.854Z,5.30
2023-04-14T08:21:56.966Z,5.30
2023-04-14T08:24:23.852Z,5.30
2023-04-14T08:26:51.106Z,5.40
2023-04-14T08:29:18.183Z,5.30
2023-04-14T08:31:45.298Z,5.30
2023-04-14T08:34:12.239Z,5.20
2023-04-14T08:36:42.250Z,5.30
2023-04-14T08:39:09.212Z,5.40
2023-04-14T08:41:39.268Z,5.40
2023-04-14T08:44:06.958Z,5.50
2023-04-14T08:46:35.467Z,5.60
2023-04-14T08:49:07.178Z,5.50
2023-04-14T08:51:39.041Z,5.40
2023-04-14T08:54:08.934Z,5.40
2023-04-14T08:56:38.708Z,5.50
2023-04-14T08:59:10.394Z,5.60
2023-04-14T09:01:38.765Z,5.40
2023-04-14T09:04:07.502Z,5.40
2023-04-14T09:06:35.574Z,5.60
2023-04-14T09:09:04.150Z,5.50
2023-04-14T09:11:31.552Z,5.40
2023-04-14T09:14:01.723Z,5.40
2023-04-14T09:16:29.538Z,5.40
2023-04-14T09:19:06.671Z,5.40
2023-04-14T09:21:51.536Z,5.30
2023-04-14T09:24:30.339Z,5.30
2023-04-14T09:27:01.744Z,5.30
2023-04-14T09:29:29.330Z,5.20
2023-04-14T09:31:56.720Z,5.10
2023-04-14T09:34:27.105Z,5.00
2023-04-14T09:37:05.293Z,5.10
2023-04-14T09:39:33.511Z,5.10
2023-04-14T09:42:01.969Z,4.90
2023-04-14T09:44:29.764Z,5.00
2023-04-14T09:47:07.390Z,5.00
2023-04-14T09:49:34.516Z,5.00
2023-04-14T09:52:05.402Z,4.80
2023-04-14T09:54:32.465Z,4.90
2023-04-14T09:56:59.533Z,5.00
2023-04-14T09:59:39.353Z,4.90
2023-04-14T10:02:10.134Z,5.00
2023-04-14T10:04:38.179Z,5.00
2023-04-14T10:07:11.242Z,5.00
2023-04-14T10:09:40.792Z,5.00
2023-04-14T10:12:09.967Z,5.10
2023-04-14T10:14:37.271Z,5.00
2023-04-14T10:17:04.625Z,5.10
2023-04-14T10:19:31.782Z,5.00
2023-04-14T10:21:59.478Z,4.90
2023-04-14T10:24:26.908Z,5.00
2023-04-14T10:26:54.585Z,5.00
2023-04-14T10:29:22.068Z,5.00
2023-04-14T10:31:54.812Z,4.90
2023-04-14T10:34:24.033Z,4.90
2023-04-14T10:36:51.125Z,4.90
2023-04-14T10:39:25.788Z,4.80
2023-04-14T10:41:55.685Z,4.90
2023-04-14T10:44:34.722Z,4.90
2023-04-14T10:47:10.757Z,4.90
2023-04-14T10:49:39.329Z,4.90
2023-04-14T10:52:16.943Z,4.90
2023-04-14T10:55:01.474Z,4.80
2023-04-14T10:57:29.779Z,4.90
2023-04-14T10:59:58.995Z,4.90
2023-04-14T11:02:31.440Z,4.90
2023-04-14T11:05:08.515Z,4.90
2023-04-14T11:07:44.795Z,4.90
2023-04-14T11:10:18.134Z,4.90
2023-04-14T11:12:47.193Z,4.90
2023-04-14T11:15:15.498Z,5.00
2023-04-14T11:17:43.722Z,4.70
2023-04-14T11:20:22.127Z,4.80
2023-04-14T11:22:51.169Z,4.90
2023-04-14T11:25:22.305Z,4.90
2023-04-14T11:27:52.231Z,5.00
2023-04-14T11:30:20.710Z,4.90
2023-04-14T11:32:52.283Z,4.80
2023-04-14T11:35:20.957Z,4.70
2023-04-14T11:37:48.207Z,4.70
2023-04-14T11:40:16.122Z,4.90
2023-04-14T11:42:47.248Z,4.90
2023-04-14T11:45:18.006Z,4.70
2023-04-14T11:47:59.480Z,4.90
2023-04-14T11:50:30.214Z,5.00
2023-04-14T11:52:59.604Z,4.90
2023-04-14T11:55:30.813Z,4.80
2023-04-14T11:57:58.199Z,4.80
2023-04-14T12:00:25.430Z,4.80
2023-04-14T12:02:52.749Z,4.90
2023-04-14T12:05:31.302Z,4.90
2023-04-14T12:08:03.971Z,4.80
2023-04-14T12:10:32.092Z,4.80
2023-04-14T12:13:19.322Z,5.00
2023-04-14T12:15:46.497Z,5.00
2023-04-14T12:18:17.214Z,5.00
2023-04-14T12:21:02.238Z,4.90
2023-04-14T12:23:29.337Z,4.90
2023-04-14T12:25:56.729Z,5.00
2023-04-14T12:28:28.649Z,5.10
2023-04-14T12:31:02.604Z,5.00
2023-04-14T12:33:31.218Z,5.10
2023-04-14T12:36:04.903Z,5.10
2023-04-14T12:38:33.045Z,5.10
2023-04-14T12:41:00.616Z,5.10
2023-04-14T12:43:30.084Z,5.10
2023-04-14T12:45:58.775Z,5.10
2023-04-14T12:48:47.036Z,5.20
2023-04-14T12:51:19.228Z,5.20
2023-04-14T12:53:48.646Z,5.30
2023-04-14T12:56:22.201Z,5.30
2023-04-14T12:58:51.229Z,5.40
2023-04-14T13:01:22.609Z,5.70
2023-04-14T13:03:51.726Z,5.60
2023-04-14T13:06:20.996Z,5.60
2023-04-14T13:08:49.871Z,5.60
2023-04-14T13:11:18.233Z,5.70
2023-04-14T13:13:45.796Z,5.70
2023-04-14T13:16:16.957Z,5.70
2023-04-14T13:18:45.634Z,5.80
2023-04-14T13:21:12.910Z,5.90
2023-04-14T13:23:40.780Z,5.90
2023-04-14T13:26:08.097Z,6.00
2023-04-14T13:28:35.260Z,5.90
2023-04-14T13:31:02.687Z,5.90
2023-04-14T13:33:29.830Z,6.00
2023-04-14T13:35:57.420Z,6.00
2023-04-14T13:38:24.431Z,5.90
2023-04-14T13:40:51.486Z,5.90
2023-04-14T13:43:19.129Z,5.90
2023-04-14T13:45:47.180Z,6.00
2023-04-14T13:48:14.764Z,6.00
2023-04-14T13:50:42.264Z,6.10
2023-04-14T13:53:09.457Z,6.20
2023-04-14T13:55:36.609Z,6.10
2023-04-14T13:58:03.840Z,6.10
2023-04-14T14:00:30.835Z,6.20
2023-04-14T14:02:58.176Z,6.20
2023-04-14T14:05:28.316Z,6.30
2023-04-14T14:07:57.040Z,6.30
2023-04-14T14:10:24.082Z,6.20
2023-04-14T14:12:51.676Z,6.10
2023-04-14T14:15:18.956Z,6.20
2023-04-14T14:17:47.357Z,6.20
2023-04-14T14:20:14.380Z,6.20
2023-04-14T14:22:41.766Z,6.10
2023-04-14T14:25:19.538Z,6.10
2023-04-14T14:27:48.344Z,6.20
2023-04-14T14:30:15.874Z,6.20
2023-04-14T14:32:43.105Z,6.20
2023-04-14T14:35:10.545Z,6.30
2023-04-14T14:37:37.644Z,6.30
2023-04-14T14:40:05.775Z,6.20
2023-04-14T14:42:32.786Z,6.20
2023-04-14T14:45:01.099Z,6.10
2023-04-14T14:47:28.982Z,6.10
2023-04-14T14:50:02.839Z,6.10
2023-04-14T14:52:33.862Z,6.10
2023-04-14T14:55:01.615Z,6.10
2023-04-14T14:57:29.677Z,6.20
2023-04-14T14:59:57.269Z,6.30
2023-04-14T15:02:25.585Z,6.20
2023-04-14T15:04:53.808Z,6.10
2023-04-14T15:07:20.887Z,6.10
2023-04-14T15:09:48.833Z,6.20
2023-04-14T15:12:16.353Z,6.10
2023-04-14T15:14:44.348Z,6.10
2023-04-14T15:17:11.466Z,6.20
2023-04-14T15:19:40.458Z,6.20
2023-04-14T15:22:08.535Z,6.30
2023-04-14T15:24:35.595Z,6.30
2023-04-14T15:27:03.470Z,6.30
2023-04-14T15:29:31.375Z,6.30
2023-04-14T15:31:58.326Z,6.40
2023-04-14T15:34:25.412Z,6.30
2023-04-14T15:36:52.437Z,6.40
2023-04-14T15:39:19.533Z,6.30
2023-04-14T15:41:47.671Z,6.30
2023-04-14T15:44:14.722Z,6.30
2023-04-14T15:46:41.898Z,6.20
2023-04-14T15:49:08.857Z,6.20
2023-04-14T15:51:35.984Z,6.20
2023-04-14T15:54:03.509Z,6.30
2023-04-14T15:56:31.165Z,6.30
2023-04-14T15:58:58.234Z,6.30
2023-04-14T16:01:25.366Z,6.30
2023-04-14T16:03:52.943Z,6.30
2023-04-14T16:06:26.650Z,6.20
2023-04-14T16:08:53.773Z,6.30
2023-04-14T16:11:20.865Z,6.30
2023-04-14T16:13:48.076Z,6.30
2023-04-14T16:16:16.438Z,6.30
2023-04-14T16:18:43.444Z,6.20
2023-04-14T16:21:10.564Z,6.30
2023-04-14T16:23:37.683Z,6.20
2023-04-14T16:26:04.791Z,6.20
2023-04-14T16:28:32.171Z,6.20
2023-04-14T16:31:01.817Z,6.30
2023-04-14T16:33:29.491Z,6.30
2023-04-14T16:35:59.841Z,6.30
2023-04-14T16:38:29.392Z,6.30
2023-04-14T16:40:58.360Z,6.30
2023-04-14T16:43:27.403Z,6.30
2023-04-14T16:46:04.776Z,6.20
2023-04-14T16:48:32.918Z,6.20
2023-04-14T16:51:08.305Z,6.10
2023-04-14T16:53:37.443Z,6.00
2023-04-14T16:56:05.552Z,6.10
2023-04-14T16:58:33.255Z,6.10
2023-04-14T17:01:01.574Z,6.10
2023-04-14T17:03:29.844Z,6.20
2023-04-14T17:05:57.774Z,6.20
2023-04-14T17:08:25.444Z,6.20
2023-04-14T17:10:52.663Z,6.30
2023-04-14T17:13:20.082Z,6.30
2023-04-14T17:15:58.420Z,6.30
2023-04-14T17:18:33.897Z,6.30
2023-04-14T17:21:01.264Z,6.30
2023-04-14T17:23:28.717Z,6.20
2023-04-14T17:25:58.721Z,6.20
2023-04-14T17:28:27.765Z,6.20
2023-04-14T17:30:56.290Z,6.30
2023-04-14T17:33:27.584Z,6.30
2023-04-14T17:35:55.536Z,6.30
2023-04-14T17:38:23.891Z,6.40
2023-04-14T17:40:53.746Z,6.30
2023-04-14T17:43:21.177Z,6.30
2023-04-14T17:45:50.791Z,6.40
2023-04-14T17:48:19.848Z,6.40
2023-04-14T17:50:47.809Z,6.40
2023-04-14T17:53:16.993Z,6.40
2023-04-14T17:55:45.409Z,6.30
2023-04-14T17:58:12.980Z,6.30
2023-04-14T18:00:41.975Z,6.30
2023-04-14T18:03:09.506Z,6.40
2023-04-14T18:05:37.817Z,6.30
2023-04-14T18:08:05.566Z,6.30
2023-04-14T18:10:35.095Z,6.30
2023-04-14T18:13:02.238Z,6.30
2023-04-14T18:15:29.527Z,6.30
2023-04-14T18:17:59.117Z,6.40
2023-04-14T18:20:27.309Z,6.50
2023-04-14T18:22:55.161Z,6.50
2023-04-14T18:25:23.001Z,6.50
2023-04-14T18:30:22.581Z,6.50
2023-04-14T18:32:50.555Z,6.60
2023-04-14T18:35:18.603Z,6.40
2023-04-14T18:37:46.962Z,6.50
2023-04-14T18:40:14.881Z,6.50
2023-04-14T18:42:42.865Z,6.60
2023-04-14T18:45:10.886Z,6.50
2023-04-14T18:47:39.266Z,6.50
2023-04-14T18:50:07.583Z,6.50
2023-04-14T18:52:35.720Z,6.50
2023-04-14T18:55:03.953Z,6.50
2023-04-14T18:57:34.908Z,6.50
2023-04-14T19:00:06.591Z,6.40
2023-04-14T19:02:35.056Z,6.40
2023-04-14T19:05:03.256Z,6.40
2023-04-14T19:07:31.502Z,6.40
2023-04-14T19:10:00.853Z,6.40
2023-04-14T19:12:28.989Z,6.50
2023-04-14T19:14:59.527Z,6.50
2023-04-14T19:17:27.380Z,6.50
2023-04-14T19:19:55.404Z,6.50
2023-04-14T19:22:24.080Z,6.60
2023-04-14T19:24:51.662Z,6.60
2023-04-14T19:27:21.349Z,6.60
2023-04-14T19:29:49.415Z,6.50
2023-04-14T19:32:17.547Z,6.50
2023-04-14T19:34:45.809Z,6.50
2023-04-14T19:37:13.959Z,6.50
2023-04-14T19:39:43.563Z,6.40
2023-04-14T19:42:11.234Z,6.50
2023-04-14T19:44:39.987Z,6.30
2023-04-14T19:47:08.285Z,6.40
2023-04-14T19:49:36.618Z,6.40
2023-04-14T19:52:05.381Z,6.40
2023-04-14T19:54:33.508Z,6.40
2023-04-14T19:57:01.089Z,6.40
2023-04-14T19:59:32.245Z,6.50
2023-04-14T20:02:06.433Z,6.40
2023-04-14T20:04:34.704Z,6.40
2023-04-14T20:07:02.318Z,6.50
2023-04-14T20:09:29.776Z,6.40
2023-04-14T20:12:00.688Z,6.50
2023-04-14T20:14:28.830Z,6.60
2023-04-14T20:16:57.121Z,6.60
2023-04-14T20:19:25.094Z,6.50
2023-04-14T20:21:52.138Z,6.50
2023-04-14T20:24:20.427Z,6.50
2023-04-14T20:26:48.454Z,6.40
2023-04-14T20:29:19.265Z,6.40
2023-04-14T20:31:47.707Z,6.40
2023-04-14T20:34:15.386Z,6.50
2023-04-14T20:36:45.361Z,6.60
2023-04-14T20:39:13.418Z,6.70
2023-04-14T20:41:40.445Z,6.60
2023-04-14T20:44:07.924Z,6.60
2023-04-14T20:46:36.897Z,6.60
2023-04-14T20:49:04.403Z,6.60
2023-04-14T20:51:32.725Z,6.70
2023-04-14T20:54:01.580Z,6.60
2023-04-14T20:56:30.945Z,6.50
2023-04-14T20:58:59.407Z,6.60
2023-04-14T21:01:28.287Z,6.50
2023-04-14T21:03:56.216Z,6.60
2023-04-14T21:06:24.847Z,6.60
2023-04-14T21:08:52.521Z,6.70
2023-04-14T21:11:19.847Z,6.70
2023-04-14T21:15:27.180Z,6.80
2023-04-14T21:16:34.845Z,6.80
2023-04-14T21:19:02.764Z,6.80
2023-04-14T21:21:30.006Z,6.70
2023-04-14T21:23:56.959Z,6.80
2023-04-14T21:26:24.103Z,6.70
2023-04-14T21:28:51.340Z,6.60
2023-04-14T21:31:18.507Z,6.70
2023-04-14T21:33:46.866Z,6.70
2023-04-14T21:36:14.556Z,6.70
2023-04-14T21:38:41.512Z,6.60
2023-04-14T21:41:08.735Z,6.70
2023-04-14T21:43:36.758Z,6.70
2023-04-14T21:46:05.161Z,6.80
2023-04-14T21:48:32.299Z,6.80
2023-04-14T21:50:59.265Z,6.80
2023-04-14T21:53:26.537Z,6.70
2023-04-14T21:55:58.838Z,6.60
2023-04-14T21:58:38.226Z,6.70
2023-04-14T22:01:05.543Z,6.50
2023-04-14T22:03:33.307Z,6.50
2023-04-14T22:06:00.405Z,6.60
2023-04-14T22:08:27.319Z,6.70
2023-04-14T22:10:54.977Z,6.70
2023-04-14T22:13:22.057Z,6.70
2023-04-14T22:15:50.088Z,6.70
2023-04-14T22:18:17.301Z,6.80
2023-04-14T22:20:45.345Z,6.80
2023-04-14T22:23:13.348Z,6.90
2023-04-14T22:25:40.426Z,6.90
2023-04-14T22:28:07.531Z,6.90
2023-04-14T22:30:35.277Z,6.80
2023-04-14T22:33:02.495Z,6.90
2023-04-14T22:35:29.956Z,6.90
2023-04-14T22:37:57.151Z,6.90
2023-04-14T22:40:24.519Z,6.80
2023-04-14T22:42:51.801Z,6.50
2023-04-14T22:45:18.923Z,6.60
2023-04-14T22:47:46.133Z,6.70
2023-04-14T22:50:13.468Z,6.80
2023-04-14T22:52:40.960Z,6.80
2023-04-14T22:55:08.203Z,6.60
2023-04-14T22:57:35.201Z,6.70
2023-04-14T23:00:09.030Z,6.70
2023-04-14T23:02:36.752Z,6.60
2023-04-14T23:05:04.345Z,6.60
2023-04-14T23:07:31.753Z,6.50
2023-04-14T23:09:58.703Z,6.60
2023-04-14T23:12:26.072Z,6.70
2023-04-14T23:14:53.302Z,6.50
2023-04-14T23:17:20.774Z,6.50
2023-04-14T23:19:47.754Z,6.40
2023-04-14T23:22:15.520Z,6.40
2023-04-14T23:24:42.940Z,6.30
2023-04-14T23:27:09.863Z,6.30
2023-04-14T23:29:37.679Z,6.20
2023-04-14T23:32:10.833Z,6.20
2023-04-14T23:34:38.508Z,6.10
2023-04-14T23:37:05.697Z,6.20
2023-04-14T23:39:32.821Z,6.20
2023-04-14T23:42:00.618Z,6.00
2023-04-14T23:44:27.814Z,6.10
2023-04-14T23:46:55.530Z,6.10
2023-04-14T23:49:32.933Z,5.90
2023-04-14T23:52:02.186Z,5.90
2023-04-14T23:54:31.062Z,5.90
2023-04-14T23:56:58.481Z,5.80
2023-04-14T23:59:25.430Z,5.80
